sensor_id;sensor_type;location;lat;lon;timestamp;P1;durP1;ratioP1;P2;durP2;ratioP2
17927;SDS011;9089;58.396;15.544;2022-07-11T00:02:05;0.90;;;0.75;;
17927;SDS011;9089;58.396;15.544;2022-07-11T00:04:31;0.63;;;0.63;;
17927;SDS011;9089;58.396;15.544;2022-07-11T00:06:57;1.60;;;0.75;;
17927;SDS011;9089;58.396;15.544;2022-07-11T00:09:22;1.67;;;0.60;;
17927;SDS011;9089;58.396;15.544;2022-07-11T00:11:48;0.65;;;0.60;;
17927;SDS011;9089;58.396;15.544;2022-07-11T00:14:15;0.60;;;0.60;;
17927;SDS011;9089;58.396;15.544;2022-07-11T00:16:40;1.20;;;0.80;;
17927;SDS011;9089;58.396;15.544;2022-07-11T00:19:06;0.80;;;0.80;;
17927;SDS011;9089;58.396;15.544;2022-07-11T00:21:31;0.65;;;0.65;;
17927;SDS011;9089;58.396;15.544;2022-07-11T00:23:57;1.27;;;0.80;;
17927;SDS011;9089;58.396;15.544;2022-07-11T00:26:22;2.38;;;0.70;;
17927;SDS011;9089;58.396;15.544;2022-07-11T00:28:48;1.08;;;0.73;;
17927;SDS011;9089;58.396;15.544;2022-07-11T00:31:15;2.28;;;0.70;;
17927;SDS011;9089;58.396;15.544;2022-07-11T00:33:40;2.58;;;0.60;;
17927;SDS011;9089;58.396;15.544;2022-07-11T00:36:06;1.63;;;0.68;;
17927;SDS011;9089;58.396;15.544;2022-07-11T00:38:31;1.20;;;0.70;;
17927;SDS011;9089;58.396;15.544;2022-07-11T00:40:57;1.95;;;0.88;;
17927;SDS011;9089;58.396;15.544;2022-07-11T00:43:29;1.52;;;0.77;;
17927;SDS011;9089;58.396;15.544;2022-07-11T00:45:54;1.70;;;0.50;;
17927;SDS011;9089;58.396;15.544;2022-07-11T00:48:21;1.30;;;0.80;;
17927;SDS011;9089;58.396;15.544;2022-07-11T00:50:46;3.75;;;0.70;;
17927;SDS011;9089;58.396;15.544;2022-07-11T00:53:12;1.08;;;0.77;;
17927;SDS011;9089;58.396;15.544;2022-07-11T00:55:37;1.58;;;0.70;;
17927;SDS011;9089;58.396;15.544;2022-07-11T00:58:03;1.65;;;0.50;;
17927;SDS011;9089;58.396;15.544;2022-07-11T01:00:29;0.93;;;0.65;;
17927;SDS011;9089;58.396;15.544;2022-07-11T01:02:54;0.82;;;0.75;;
17927;SDS011;9089;58.396;15.544;2022-07-11T01:05:21;1.13;;;0.65;;
17927;SDS011;9089;58.396;15.544;2022-07-11T01:07:47;0.65;;;0.65;;
17927;SDS011;9089;58.396;15.544;2022-07-11T01:10:12;2.13;;;0.82;;
17927;SDS011;9089;58.396;15.544;2022-07-11T01:12:38;1.05;;;0.70;;
17927;SDS011;9089;58.396;15.544;2022-07-11T01:15:03;0.60;;;0.60;;
17927;SDS011;9089;58.396;15.544;2022-07-11T01:17:30;0.95;;;0.95;;
17927;SDS011;9089;58.396;15.544;2022-07-11T01:19:56;1.33;;;0.90;;
17927;SDS011;9089;58.396;15.544;2022-07-11T01:22:24;1.27;;;0.90;;
17927;SDS011;9089;58.396;15.544;2022-07-11T01:24:51;1.95;;;0.95;;
17927;SDS011;9089;58.396;15.544;2022-07-11T01:27:17;0.90;;;0.80;;
17927;SDS011;9089;58.396;15.544;2022-07-11T01:29:43;1.85;;;0.90;;
17927;SDS011;9089;58.396;15.544;2022-07-11T01:32:09;1.15;;;0.90;;
17927;SDS011;9089;58.396;15.544;2022-07-11T01:34:35;1.05;;;0.75;;
17927;SDS011;9089;58.396;15.544;2022-07-11T01:37:00;1.52;;;0.95;;
17927;SDS011;9089;58.396;15.544;2022-07-11T01:39:26;0.75;;;0.75;;
17927;SDS011;9089;58.396;15.544;2022-07-11T01:41:57;1.05;;;0.70;;
17927;SDS011;9089;58.396;15.544;2022-07-11T01:44:23;0.80;;;0.77;;
17927;SDS011;9089;58.396;15.544;2022-07-11T01:46:48;0.98;;;0.68;;
17927;SDS011;9089;58.396;15.544;2022-07-11T01:49:14;1.70;;;0.90;;
17927;SDS011;9089;58.396;15.544;2022-07-11T01:51:40;0.80;;;0.80;;
17927;SDS011;9089;58.396;15.544;2022-07-11T01:54:07;0.80;;;0.80;;
17927;SDS011;9089;58.396;15.544;2022-07-11T01:56:32;0.95;;;0.85;;
17927;SDS011;9089;58.396;15.544;2022-07-11T01:59:00;1.40;;;0.70;;
17927;SDS011;9089;58.396;15.544;2022-07-11T02:01:26;0.70;;;0.70;;
17927;SDS011;9089;58.396;15.544;2022-07-11T02:03:52;0.68;;;0.65;;
17927;SDS011;9089;58.396;15.544;2022-07-11T02:06:17;2.03;;;0.80;;
17927;SDS011;9089;58.396;15.544;2022-07-11T02:08:43;2.20;;;0.70;;
17927;SDS011;9089;58.396;15.544;2022-07-11T02:11:08;1.30;;;0.95;;
17927;SDS011;9089;58.396;15.544;2022-07-11T02:13:34;3.97;;;0.80;;
17927;SDS011;9089;58.396;15.544;2022-07-11T02:16:01;1.02;;;0.60;;
17927;SDS011;9089;58.396;15.544;2022-07-11T02:18:27;0.90;;;0.90;;
17927;SDS011;9089;58.396;15.544;2022-07-11T02:20:53;1.30;;;0.80;;
17927;SDS011;9089;58.396;15.544;2022-07-11T02:23:19;1.65;;;0.85;;
17927;SDS011;9089;58.396;15.544;2022-07-11T02:25:44;0.80;;;0.80;;
17927;SDS011;9089;58.396;15.544;2022-07-11T02:28:10;0.90;;;0.90;;
17927;SDS011;9089;58.396;15.544;2022-07-11T02:30:36;0.70;;;0.70;;
17927;SDS011;9089;58.396;15.544;2022-07-11T02:33:03;0.93;;;0.75;;
17927;SDS011;9089;58.396;15.544;2022-07-11T02:35:29;0.80;;;0.70;;
17927;SDS011;9089;58.396;15.544;2022-07-11T02:37:54;1.00;;;0.90;;
17927;SDS011;9089;58.396;15.544;2022-07-11T02:40:20;2.08;;;0.70;;
17927;SDS011;9089;58.396;15.544;2022-07-11T02:42:45;1.08;;;0.90;;
17927;SDS011;9089;58.396;15.544;2022-07-11T02:45:11;2.67;;;1.20;;
17927;SDS011;9089;58.396;15.544;2022-07-11T02:47:37;1.60;;;0.93;;
17927;SDS011;9089;58.396;15.544;2022-07-11T02:50:06;0.93;;;0.93;;
17927;SDS011;9089;58.396;15.544;2022-07-11T02:52:32;1.08;;;1.00;;
17927;SDS011;9089;58.396;15.544;2022-07-11T02:54:57;0.70;;;0.70;;
17927;SDS011;9089;58.396;15.544;2022-07-11T02:57:24;0.80;;;0.80;;
17927;SDS011;9089;58.396;15.544;2022-07-11T02:59:49;1.08;;;0.90;;
17927;SDS011;9089;58.396;15.544;2022-07-11T03:02:15;2.78;;;1.17;;
17927;SDS011;9089;58.396;15.544;2022-07-11T03:04:40;0.88;;;0.82;;
17927;SDS011;9089;58.396;15.544;2022-07-11T03:07:08;3.28;;;1.10;;
17927;SDS011;9089;58.396;15.544;2022-07-11T03:09:33;1.60;;;0.98;;
17927;SDS011;9089;58.396;15.544;2022-07-11T03:11:59;1.00;;;1.00;;
17927;SDS011;9089;58.396;15.544;2022-07-11T03:14:24;3.15;;;1.13;;
17927;SDS011;9089;58.396;15.544;2022-07-11T03:16:50;1.20;;;1.10;;
17927;SDS011;9089;58.396;15.544;2022-07-11T03:19:16;1.38;;;1.10;;
17927;SDS011;9089;58.396;15.544;2022-07-11T03:21:41;1.08;;;1.00;;
17927;SDS011;9089;58.396;15.544;2022-07-11T03:24:08;1.20;;;1.10;;
17927;SDS011;9089;58.396;15.544;2022-07-11T03:26:34;0.95;;;0.85;;
17927;SDS011;9089;58.396;15.544;2022-07-11T03:28:59;1.30;;;1.20;;
17927;SDS011;9089;58.396;15.544;2022-07-11T03:31:25;1.00;;;0.90;;
17927;SDS011;9089;58.396;15.544;2022-07-11T03:33:51;1.73;;;1.10;;
17927;SDS011;9089;58.396;15.544;2022-07-11T03:36:16;1.13;;;1.02;;
17927;SDS011;9089;58.396;15.544;2022-07-11T03:38:41;1.67;;;1.20;;
17927;SDS011;9089;58.396;15.544;2022-07-11T03:41:08;1.67;;;1.15;;
17927;SDS011;9089;58.396;15.544;2022-07-11T03:43:34;1.55;;;0.88;;
17927;SDS011;9089;58.396;15.544;2022-07-11T03:45:59;2.58;;;1.33;;
17927;SDS011;9089;58.396;15.544;2022-07-11T03:48:25;1.58;;;1.02;;
17927;SDS011;9089;58.396;15.544;2022-07-11T03:50:50;2.47;;;1.13;;
17927;SDS011;9089;58.396;15.544;2022-07-11T03:53:16;1.08;;;1.00;;
17927;SDS011;9089;58.396;15.544;2022-07-11T03:55:41;0.98;;;0.85;;
17927;SDS011;9089;58.396;15.544;2022-07-11T03:58:08;1.30;;;1.00;;
17927;SDS011;9089;58.396;15.544;2022-07-11T04:00:34;1.45;;;0.90;;
17927;SDS011;9089;58.396;15.544;2022-07-11T04:02:59;3.55;;;0.98;;
17927;SDS011;9089;58.396;15.544;2022-07-11T04:05:25;5.38;;;1.00;;
17927;SDS011;9089;58.396;15.544;2022-07-11T04:07:50;0.95;;;0.95;;
17927;SDS011;9089;58.396;15.544;2022-07-11T04:10:16;1.10;;;1.00;;
17927;SDS011;9089;58.396;15.544;2022-07-11T04:12:42;2.45;;;1.10;;
17927;SDS011;9089;58.396;15.544;2022-07-11T04:15:10;0.88;;;0.88;;
17927;SDS011;9089;58.396;15.544;2022-07-11T04:17:35;1.33;;;0.90;;
17927;SDS011;9089;58.396;15.544;2022-07-11T04:20:00;1.77;;;1.00;;
17927;SDS011;9089;58.396;15.544;2022-07-11T04:22:26;1.10;;;1.00;;
17927;SDS011;9089;58.396;15.544;2022-07-11T04:24:51;1.30;;;1.20;;
17927;SDS011;9089;58.396;15.544;2022-07-11T04:27:17;0.70;;;0.70;;
17927;SDS011;9089;58.396;15.544;2022-07-11T04:29:42;1.48;;;1.08;;
17927;SDS011;9089;58.396;15.544;2022-07-11T04:32:09;1.10;;;1.00;;
17927;SDS011;9089;58.396;15.544;2022-07-11T04:34:35;2.25;;;0.90;;
17927;SDS011;9089;58.396;15.544;2022-07-11T04:37:00;1.48;;;0.88;;
17927;SDS011;9089;58.396;15.544;2022-07-11T04:39:26;1.15;;;0.80;;
17927;SDS011;9089;58.396;15.544;2022-07-11T04:41:51;2.20;;;1.08;;
17927;SDS011;9089;58.396;15.544;2022-07-11T04:44:16;1.60;;;1.10;;
17927;SDS011;9089;58.396;15.544;2022-07-11T04:46:42;1.33;;;0.90;;
17927;SDS011;9089;58.396;15.544;2022-07-11T04:49:09;1.60;;;1.10;;
17927;SDS011;9089;58.396;15.544;2022-07-11T04:51:34;2.08;;;0.90;;
17927;SDS011;9089;58.396;15.544;2022-07-11T04:54:01;2.72;;;1.00;;
17927;SDS011;9089;58.396;15.544;2022-07-11T04:56:27;1.55;;;0.90;;
17927;SDS011;9089;58.396;15.544;2022-07-11T04:58:52;2.03;;;1.00;;
17927;SDS011;9089;58.396;15.544;2022-07-11T05:01:18;1.10;;;1.00;;
17927;SDS011;9089;58.396;15.544;2022-07-11T05:03:43;0.88;;;0.75;;
17927;SDS011;9089;58.396;15.544;2022-07-11T05:06:11;1.23;;;0.90;;
17927;SDS011;9089;58.396;15.544;2022-07-11T05:08:36;0.73;;;0.73;;
17927;SDS011;9089;58.396;15.544;2022-07-11T05:11:02;1.30;;;0.98;;
17927;SDS011;9089;58.396;15.544;2022-07-11T05:13:27;1.00;;;0.80;;
17927;SDS011;9089;58.396;15.544;2022-07-11T05:15:53;2.75;;;1.10;;
17927;SDS011;9089;58.396;15.544;2022-07-11T05:18:19;1.13;;;0.70;;
17927;SDS011;9089;58.396;15.544;2022-07-11T05:20:44;2.83;;;0.85;;
17927;SDS011;9089;58.396;15.544;2022-07-11T05:23:11;1.55;;;0.98;;
17927;SDS011;9089;58.396;15.544;2022-07-11T05:25:36;0.80;;;0.80;;
17927;SDS011;9089;58.396;15.544;2022-07-11T05:28:02;2.60;;;0.98;;
17927;SDS011;9089;58.396;15.544;2022-07-11T05:30:27;1.60;;;1.00;;
17927;SDS011;9089;58.396;15.544;2022-07-11T05:32:53;2.13;;;0.90;;
17927;SDS011;9089;58.396;15.544;2022-07-11T05:35:18;3.40;;;1.35;;
17927;SDS011;9089;58.396;15.544;2022-07-11T05:37:43;0.80;;;0.70;;
17927;SDS011;9089;58.396;15.544;2022-07-11T05:40:11;1.40;;;1.20;;
17927;SDS011;9089;58.396;15.544;2022-07-11T05:42:36;1.55;;;0.80;;
17927;SDS011;9089;58.396;15.544;2022-07-11T05:45:02;0.73;;;0.70;;
17927;SDS011;9089;58.396;15.544;2022-07-11T05:47:27;1.70;;;0.88;;
17927;SDS011;9089;58.396;15.544;2022-07-11T05:49:53;1.38;;;0.93;;
17927;SDS011;9089;58.396;15.544;2022-07-11T05:52:18;1.13;;;0.80;;
17927;SDS011;9089;58.396;15.544;2022-07-11T05:54:44;1.30;;;0.68;;
17927;SDS011;9089;58.396;15.544;2022-07-11T05:57:10;1.02;;;0.90;;
17927;SDS011;9089;58.396;15.544;2022-07-11T05:59:36;2.08;;;0.80;;
17927;SDS011;9089;58.396;15.544;2022-07-11T06:02:02;1.05;;;0.70;;
17927;SDS011;9089;58.396;15.544;2022-07-11T06:04:28;1.25;;;0.70;;
17927;SDS011;9089;58.396;15.544;2022-07-11T06:06:53;2.00;;;0.70;;
17927;SDS011;9089;58.396;15.544;2022-07-11T06:09:19;0.70;;;0.60;;
17927;SDS011;9089;58.396;15.544;2022-07-11T06:11:45;1.13;;;0.60;;
17927;SDS011;9089;58.396;15.544;2022-07-11T06:14:11;2.28;;;0.80;;
17927;SDS011;9089;58.396;15.544;2022-07-11T06:16:37;1.10;;;0.75;;
17927;SDS011;9089;58.396;15.544;2022-07-11T06:19:03;2.10;;;0.68;;
17927;SDS011;9089;58.396;15.544;2022-07-11T06:21:28;2.05;;;0.65;;
17927;SDS011;9089;58.396;15.544;2022-07-11T06:23:53;2.60;;;0.80;;
17927;SDS011;9089;58.396;15.544;2022-07-11T06:26:22;1.05;;;0.90;;
17927;SDS011;9089;58.396;15.544;2022-07-11T06:28:47;3.30;;;0.75;;
17927;SDS011;9089;58.396;15.544;2022-07-11T06:31:14;2.25;;;0.70;;
17927;SDS011;9089;58.396;15.544;2022-07-11T06:33:41;2.30;;;0.75;;
17927;SDS011;9089;58.396;15.544;2022-07-11T06:36:07;2.17;;;0.60;;
17927;SDS011;9089;58.396;15.544;2022-07-11T06:38:34;1.95;;;0.85;;
17927;SDS011;9089;58.396;15.544;2022-07-11T06:40:59;3.10;;;0.60;;
17927;SDS011;9089;58.396;15.544;2022-07-11T06:43:25;1.42;;;0.50;;
17927;SDS011;9089;58.396;15.544;2022-07-11T06:45:53;0.75;;;0.40;;
17927;SDS011;9089;58.396;15.544;2022-07-11T06:48:20;1.38;;;0.80;;
17927;SDS011;9089;58.396;15.544;2022-07-11T06:50:46;2.08;;;0.60;;
17927;SDS011;9089;58.396;15.544;2022-07-11T06:53:12;1.30;;;0.85;;
17927;SDS011;9089;58.396;15.544;2022-07-11T06:55:38;2.95;;;0.50;;
17927;SDS011;9089;58.396;15.544;2022-07-11T06:58:04;1.20;;;0.50;;
17927;SDS011;9089;58.396;15.544;2022-07-11T07:00:30;2.70;;;0.68;;
17927;SDS011;9089;58.396;15.544;2022-07-11T07:02:57;0.98;;;0.50;;
17927;SDS011;9089;58.396;15.544;2022-07-11T07:05:25;1.10;;;0.80;;
17927;SDS011;9089;58.396;15.544;2022-07-11T07:07:51;1.15;;;0.57;;
17927;SDS011;9089;58.396;15.544;2022-07-11T07:10:17;1.95;;;0.70;;
17927;SDS011;9089;58.396;15.544;2022-07-11T07:12:43;0.70;;;0.50;;
17927;SDS011;9089;58.396;15.544;2022-07-11T07:15:10;0.98;;;0.60;;
17927;SDS011;9089;58.396;15.544;2022-07-11T07:17:36;2.00;;;0.70;;
17927;SDS011;9089;58.396;15.544;2022-07-11T07:20:02;1.00;;;0.50;;
17927;SDS011;9089;58.396;15.544;2022-07-11T07:22:29;0.40;;;0.40;;
17927;SDS011;9089;58.396;15.544;2022-07-11T07:24:55;0.80;;;0.60;;
17927;SDS011;9089;58.396;15.544;2022-07-11T07:27:21;0.77;;;0.50;;
17927;SDS011;9089;58.396;15.544;2022-07-11T07:29:47;2.15;;;0.50;;
17927;SDS011;9089;58.396;15.544;2022-07-11T07:32:13;1.27;;;0.60;;
17927;SDS011;9089;58.396;15.544;2022-07-11T07:34:39;1.33;;;0.60;;
17927;SDS011;9089;58.396;15.544;2022-07-11T07:37:05;0.77;;;0.50;;
17927;SDS011;9089;58.396;15.544;2022-07-11T07:39:32;1.67;;;0.50;;
17927;SDS011;9089;58.396;15.544;2022-07-11T07:41:57;0.50;;;0.50;;
17927;SDS011;9089;58.396;15.544;2022-07-11T07:44:23;1.20;;;0.60;;
17927;SDS011;9089;58.396;15.544;2022-07-11T07:46:49;0.60;;;0.40;;
17927;SDS011;9089;58.396;15.544;2022-07-11T07:49:15;0.55;;;0.40;;
17927;SDS011;9089;58.396;15.544;2022-07-11T07:51:41;0.57;;;0.40;;
17927;SDS011;9089;58.396;15.544;2022-07-11T07:54:07;0.65;;;0.50;;
17927;SDS011;9089;58.396;15.544;2022-07-11T07:56:34;0.73;;;0.30;;
17927;SDS011;9089;58.396;15.544;2022-07-11T07:59:00;0.65;;;0.50;;
17927;SDS011;9089;58.396;15.544;2022-07-11T08:01:25;0.68;;;0.50;;
17927;SDS011;9089;58.396;15.544;2022-07-11T08:04:00;1.23;;;0.60;;
17927;SDS011;9089;58.396;15.544;2022-07-11T08:06:26;1.25;;;0.52;;
17927;SDS011;9089;58.396;15.544;2022-07-11T08:08:52;3.42;;;0.68;;
17927;SDS011;9089;58.396;15.544;2022-07-11T08:11:17;3.83;;;0.40;;
17927;SDS011;9089;58.396;15.544;2022-07-11T08:13:45;3.50;;;0.50;;
17927;SDS011;9089;58.396;15.544;2022-07-11T08:16:10;1.30;;;0.40;;
17927;SDS011;9089;58.396;15.544;2022-07-11T08:18:37;0.85;;;0.50;;
17927;SDS011;9089;58.396;15.544;2022-07-11T08:21:03;1.27;;;0.50;;
17927;SDS011;9089;58.396;15.544;2022-07-11T08:23:28;0.80;;;0.50;;
17927;SDS011;9089;58.396;15.544;2022-07-11T08:25:54;1.73;;;0.65;;
17927;SDS011;9089;58.396;15.544;2022-07-11T08:28:20;2.10;;;0.50;;
17927;SDS011;9089;58.396;15.544;2022-07-11T08:30:47;0.32;;;0.32;;
17927;SDS011;9089;58.396;15.544;2022-07-11T08:33:13;0.63;;;0.43;;
17927;SDS011;9089;58.396;15.544;2022-07-11T08:35:38;0.50;;;0.32;;
17927;SDS011;9089;58.396;15.544;2022-07-11T08:38:04;0.47;;;0.43;;
17927;SDS011;9089;58.396;15.544;2022-07-11T08:40:30;1.00;;;0.50;;
17927;SDS011;9089;58.396;15.544;2022-07-11T08:42:56;0.57;;;0.40;;
17927;SDS011;9089;58.396;15.544;2022-07-11T08:45:28;2.80;;;0.47;;
17927;SDS011;9089;58.396;15.544;2022-07-11T08:47:55;0.73;;;0.40;;
17927;SDS011;9089;58.396;15.544;2022-07-11T08:50:21;0.90;;;0.40;;
17927;SDS011;9089;58.396;15.544;2022-07-11T08:52:47;0.50;;;0.50;;
17927;SDS011;9089;58.396;15.544;2022-07-11T08:55:13;0.55;;;0.38;;
17927;SDS011;9089;58.396;15.544;2022-07-11T08:57:39;2.35;;;0.43;;
17927;SDS011;9089;58.396;15.544;2022-07-11T09:00:05;0.45;;;0.40;;
17927;SDS011;9089;58.396;15.544;2022-07-11T09:02:33;0.85;;;0.40;;
17927;SDS011;9089;58.396;15.544;2022-07-11T09:05:01;2.65;;;0.50;;
17927;SDS011;9089;58.396;15.544;2022-07-11T09:07:31;0.55;;;0.35;;
17927;SDS011;9089;58.396;15.544;2022-07-11T09:09:56;1.48;;;0.55;;
17927;SDS011;9089;58.396;15.544;2022-07-11T09:12:22;0.60;;;0.40;;
17927;SDS011;9089;58.396;15.544;2022-07-11T09:14:48;1.35;;;0.50;;
17927;SDS011;9089;58.396;15.544;2022-07-11T09:17:18;3.13;;;0.43;;
17927;SDS011;9089;58.396;15.544;2022-07-11T09:19:49;0.52;;;0.32;;
17927;SDS011;9089;58.396;15.544;2022-07-11T09:22:18;6.63;;;1.50;;
17927;SDS011;9089;58.396;15.544;2022-07-11T09:25:03;4.57;;;1.10;;
17927;SDS011;9089;58.396;15.544;2022-07-11T09:27:51;2.80;;;0.45;;
17927;SDS011;9089;58.396;15.544;2022-07-11T09:30:20;0.93;;;0.40;;
17927;SDS011;9089;58.396;15.544;2022-07-11T09:32:51;0.68;;;0.30;;
17927;SDS011;9089;58.396;15.544;2022-07-11T09:35:21;0.70;;;0.30;;
17927;SDS011;9089;58.396;15.544;2022-07-11T09:37:49;0.75;;;0.35;;
17927;SDS011;9089;58.396;15.544;2022-07-11T09:40:15;1.80;;;0.45;;
17927;SDS011;9089;58.396;15.544;2022-07-11T09:42:45;1.75;;;0.35;;
17927;SDS011;9089;58.396;15.544;2022-07-11T09:45:13;0.30;;;0.30;;
17927;SDS011;9089;58.396;15.544;2022-07-11T09:47:42;1.38;;;0.40;;
17927;SDS011;9089;58.396;15.544;2022-07-11T09:50:12;0.80;;;0.40;;
17927;SDS011;9089;58.396;15.544;2022-07-11T09:52:41;0.57;;;0.32;;
17927;SDS011;9089;58.396;15.544;2022-07-11T09:57:37;0.55;;;0.30;;
17927;SDS011;9089;58.396;15.544;2022-07-11T10:00:05;1.08;;;0.50;;
17927;SDS011;9089;58.396;15.544;2022-07-11T10:02:32;0.40;;;0.40;;
17927;SDS011;9089;58.396;15.544;2022-07-11T10:04:58;1.40;;;0.40;;
17927;SDS011;9089;58.396;15.544;2022-07-11T10:07:24;0.75;;;0.30;;
17927;SDS011;9089;58.396;15.544;2022-07-11T10:09:50;0.20;;;0.20;;
17927;SDS011;9089;58.396;15.544;2022-07-11T10:12:17;1.20;;;0.43;;
17927;SDS011;9089;58.396;15.544;2022-07-11T10:14:45;0.70;;;0.38;;
17927;SDS011;9089;58.396;15.544;2022-07-11T10:17:14;0.65;;;0.40;;
17927;SDS011;9089;58.396;15.544;2022-07-11T10:19:51;1.55;;;0.30;;
17927;SDS011;9089;58.396;15.544;2022-07-11T10:22:25;1.50;;;0.50;;
17927;SDS011;9089;58.396;15.544;2022-07-11T10:24:56;0.30;;;0.28;;
17927;SDS011;9089;58.396;15.544;2022-07-11T10:27:29;0.73;;;0.25;;
17927;SDS011;9089;58.396;15.544;2022-07-11T10:30:01;0.73;;;0.50;;
17927;SDS011;9089;58.396;15.544;2022-07-11T10:32:27;1.77;;;0.40;;
17927;SDS011;9089;58.396;15.544;2022-07-11T10:35:05;0.52;;;0.43;;
17927;SDS011;9089;58.396;15.544;2022-07-11T10:37:44;1.25;;;0.40;;
17927;SDS011;9089;58.396;15.544;2022-07-11T10:40:12;0.50;;;0.40;;
17927;SDS011;9089;58.396;15.544;2022-07-11T10:42:40;2.15;;;0.40;;
17927;SDS011;9089;58.396;15.544;2022-07-11T10:45:07;0.30;;;0.28;;
17927;SDS011;9089;58.396;15.544;2022-07-11T10:47:38;1.23;;;0.40;;
17927;SDS011;9089;58.396;15.544;2022-07-11T10:52:57;1.10;;;0.40;;
17927;SDS011;9089;58.396;15.544;2022-07-11T10:55:33;0.73;;;0.40;;
17927;SDS011;9089;58.396;15.544;2022-07-11T10:58:14;0.77;;;0.40;;
17927;SDS011;9089;58.396;15.544;2022-07-11T11:00:46;0.90;;;0.40;;
17927;SDS011;9089;58.396;15.544;2022-07-11T11:03:15;0.25;;;0.25;;
17927;SDS011;9089;58.396;15.544;2022-07-11T11:05:44;0.50;;;0.40;;
17927;SDS011;9089;58.396;15.544;2022-07-11T11:11:06;0.40;;;0.30;;
17927;SDS011;9089;58.396;15.544;2022-07-11T11:13:34;0.73;;;0.30;;
17927;SDS011;9089;58.396;15.544;2022-07-11T11:16:01;0.40;;;0.30;;
17927;SDS011;9089;58.396;15.544;2022-07-11T11:18:34;1.23;;;0.35;;
17927;SDS011;9089;58.396;15.544;2022-07-11T11:21:14;0.30;;;0.30;;
17927;SDS011;9089;58.396;15.544;2022-07-11T11:23:41;1.15;;;0.40;;
17927;SDS011;9089;58.396;15.544;2022-07-11T11:26:08;0.45;;;0.32;;
17927;SDS011;9089;58.396;15.544;2022-07-11T11:28:36;0.30;;;0.30;;
17927;SDS011;9089;58.396;15.544;2022-07-11T11:31:03;0.90;;;0.30;;
17927;SDS011;9089;58.396;15.544;2022-07-11T11:33:31;1.50;;;0.70;;
17927;SDS011;9089;58.396;15.544;2022-07-11T11:35:59;1.10;;;0.70;;
17927;SDS011;9089;58.396;15.544;2022-07-11T11:38:25;0.60;;;0.40;;
17927;SDS011;9089;58.396;15.544;2022-07-11T11:40:51;0.50;;;0.38;;
17927;SDS011;9089;58.396;15.544;2022-07-11T11:43:18;0.95;;;0.63;;
17927;SDS011;9089;58.396;15.544;2022-07-11T11:45:47;0.70;;;0.45;;
17927;SDS011;9089;58.396;15.544;2022-07-11T11:48:25;1.73;;;0.90;;
17927;SDS011;9089;58.396;15.544;2022-07-11T11:50:59;0.82;;;0.50;;
17927;SDS011;9089;58.396;15.544;2022-07-11T11:53:27;0.40;;;0.30;;
17927;SDS011;9089;58.396;15.544;2022-07-11T11:55:54;0.35;;;0.30;;
17927;SDS011;9089;58.396;15.544;2022-07-11T11:58:20;0.38;;;0.30;;
17927;SDS011;9089;58.396;15.544;2022-07-11T12:00:54;0.30;;;0.30;;
17927;SDS011;9089;58.396;15.544;2022-07-11T12:03:20;0.60;;;0.40;;
17927;SDS011;9089;58.396;15.544;2022-07-11T12:05:52;1.95;;;0.30;;
17927;SDS011;9089;58.396;15.544;2022-07-11T12:08:24;0.60;;;0.40;;
17927;SDS011;9089;58.396;15.544;2022-07-11T12:10:52;0.30;;;0.30;;
17927;SDS011;9089;58.396;15.544;2022-07-11T12:13:18;1.45;;;0.30;;
17927;SDS011;9089;58.396;15.544;2022-07-11T12:15:44;0.40;;;0.30;;
17927;SDS011;9089;58.396;15.544;2022-07-11T12:18:44;0.80;;;0.40;;
17927;SDS011;9089;58.396;15.544;2022-07-11T12:21:09;1.02;;;0.40;;
17927;SDS011;9089;58.396;15.544;2022-07-11T12:23:36;0.93;;;0.40;;
17927;SDS011;9089;58.396;15.544;2022-07-11T12:26:02;2.05;;;0.45;;
17927;SDS011;9089;58.396;15.544;2022-07-11T12:28:27;0.60;;;0.40;;
17927;SDS011;9089;58.396;15.544;2022-07-11T12:30:54;1.48;;;0.43;;
17927;SDS011;9089;58.396;15.544;2022-07-11T12:33:20;0.30;;;0.22;;
17927;SDS011;9089;58.396;15.544;2022-07-11T12:35:57;0.40;;;0.40;;
17927;SDS011;9089;58.396;15.544;2022-07-11T12:38:25;0.82;;;0.40;;
17927;SDS011;9089;58.396;15.544;2022-07-11T12:40:57;0.82;;;0.40;;
17927;SDS011;9089;58.396;15.544;2022-07-11T12:43:38;0.45;;;0.40;;
17927;SDS011;9089;58.396;15.544;2022-07-11T12:46:23;0.50;;;0.30;;
17927;SDS011;9089;58.396;15.544;2022-07-11T12:48:50;0.73;;;0.50;;
17927;SDS011;9089;58.396;15.544;2022-07-11T12:51:26;2.88;;;0.47;;
17927;SDS011;9089;58.396;15.544;2022-07-11T12:53:57;0.50;;;0.45;;
17927;SDS011;9089;58.396;15.544;2022-07-11T12:56:27;1.00;;;0.40;;
17927;SDS011;9089;58.396;15.544;2022-07-11T12:58:52;0.40;;;0.35;;
17927;SDS011;9089;58.396;15.544;2022-07-11T13:01:18;0.47;;;0.30;;
17927;SDS011;9089;58.396;15.544;2022-07-11T13:03:44;0.63;;;0.40;;
17927;SDS011;9089;58.396;15.544;2022-07-11T13:06:10;0.68;;;0.45;;
17927;SDS011;9089;58.396;15.544;2022-07-11T13:08:37;0.40;;;0.40;;
17927;SDS011;9089;58.396;15.544;2022-07-11T13:11:12;0.70;;;0.40;;
17927;SDS011;9089;58.396;15.544;2022-07-11T13:13:40;1.35;;;0.30;;
17927;SDS011;9089;58.396;15.544;2022-07-11T13:16:06;2.70;;;0.90;;
17927;SDS011;9089;58.396;15.544;2022-07-11T13:18:33;4.82;;;1.30;;
17927;SDS011;9089;58.396;15.544;2022-07-11T13:20:58;4.38;;;1.10;;
17927;SDS011;9089;58.396;15.544;2022-07-11T13:23:25;8.85;;;1.08;;
17927;SDS011;9089;58.396;15.544;2022-07-11T13:25:52;3.08;;;0.80;;
17927;SDS011;9089;58.396;15.544;2022-07-11T13:28:18;3.22;;;0.60;;
17927;SDS011;9089;58.396;15.544;2022-07-11T13:30:44;1.35;;;0.60;;
17927;SDS011;9089;58.396;15.544;2022-07-11T13:33:11;2.03;;;0.77;;
17927;SDS011;9089;58.396;15.544;2022-07-11T13:35:37;1.17;;;0.63;;
17927;SDS011;9089;58.396;15.544;2022-07-11T13:38:03;4.60;;;1.23;;
17927;SDS011;9089;58.396;15.544;2022-07-11T13:40:29;2.42;;;1.10;;
17927;SDS011;9089;58.396;15.544;2022-07-11T13:42:56;3.63;;;0.90;;
17927;SDS011;9089;58.396;15.544;2022-07-11T13:45:24;6.00;;;1.27;;
17927;SDS011;9089;58.396;15.544;2022-07-11T13:47:50;1.75;;;0.80;;
17927;SDS011;9089;58.396;15.544;2022-07-11T13:50:16;1.08;;;0.63;;
17927;SDS011;9089;58.396;15.544;2022-07-11T13:52:41;1.23;;;0.70;;
17927;SDS011;9089;58.396;15.544;2022-07-11T13:55:12;1.60;;;0.60;;
17927;SDS011;9089;58.396;15.544;2022-07-11T13:57:37;3.08;;;0.95;;
17927;SDS011;9089;58.396;15.544;2022-07-11T14:00:05;2.47;;;0.70;;
17927;SDS011;9089;58.396;15.544;2022-07-11T14:02:38;1.55;;;0.80;;
17927;SDS011;9089;58.396;15.544;2022-07-11T14:05:03;1.27;;;0.75;;
17927;SDS011;9089;58.396;15.544;2022-07-11T14:07:29;1.00;;;0.57;;
17927;SDS011;9089;58.396;15.544;2022-07-11T14:09:54;1.15;;;0.50;;
17927;SDS011;9089;58.396;15.544;2022-07-11T14:12:20;0.40;;;0.40;;
17927;SDS011;9089;58.396;15.544;2022-07-11T14:14:45;0.98;;;0.50;;
17927;SDS011;9089;58.396;15.544;2022-07-11T14:17:12;0.40;;;0.40;;
17927;SDS011;9089;58.396;15.544;2022-07-11T14:19:38;0.60;;;0.40;;
17927;SDS011;9089;58.396;15.544;2022-07-11T14:22:04;1.00;;;0.43;;
17927;SDS011;9089;58.396;15.544;2022-07-11T14:24:31;0.38;;;0.38;;
17927;SDS011;9089;58.396;15.544;2022-07-11T14:26:56;0.50;;;0.50;;
17927;SDS011;9089;58.396;15.544;2022-07-11T14:29:22;0.50;;;0.50;;
17927;SDS011;9089;58.396;15.544;2022-07-11T14:31:48;0.88;;;0.50;;
17927;SDS011;9089;58.396;15.544;2022-07-11T14:34:15;1.13;;;0.50;;
17927;SDS011;9089;58.396;15.544;2022-07-11T14:36:40;0.50;;;0.50;;
17927;SDS011;9089;58.396;15.544;2022-07-11T14:39:06;0.73;;;0.50;;
17927;SDS011;9089;58.396;15.544;2022-07-11T14:41:32;0.70;;;0.50;;
17927;SDS011;9089;58.396;15.544;2022-07-11T14:43:57;0.85;;;0.35;;
17927;SDS011;9089;58.396;15.544;2022-07-11T14:46:22;0.80;;;0.40;;
17927;SDS011;9089;58.396;15.544;2022-07-11T14:48:48;0.57;;;0.57;;
17927;SDS011;9089;58.396;15.544;2022-07-11T14:51:15;1.25;;;0.45;;
17927;SDS011;9089;58.396;15.544;2022-07-11T14:53:40;2.42;;;0.50;;
17927;SDS011;9089;58.396;15.544;2022-07-11T14:56:06;0.40;;;0.40;;